sensor_id;sensor_type;location;lat;lon;timestamp;P1;durP1;ratioP1;P2;durP2;ratioP2
24650;SDS011;12783;48.824;8.662;2023-03-12T00:01:57;3.88;;;1.75;;
24650;SDS011;12783;48.824;8.662;2023-03-12T00:04:27;3.88;;;1.38;;
24650;SDS011;12783;48.824;8.662;2023-03-12T00:06:54;6.10;;;1.90;;
24650;SDS011;12783;48.824;8.662;2023-03-12T00:09:21;8.43;;;1.73;;
24650;SDS011;12783;48.824;8.662;2023-03-12T00:11:48;3.53;;;1.58;;
24650;SDS011;12783;48.824;8.662;2023-03-12T00:14:15;4.32;;;1.52;;
24650;SDS011;12783;48.824;8.662;2023-03-12T00:16:42;5.72;;;1.60;;
24650;SDS011;12783;48.824;8.662;2023-03-12T00:19:10;5.05;;;1.63;;
24650;SDS011;12783;48.824;8.662;2023-03-12T00:21:38;13.55;;;1.45;;
24650;SDS011;12783;48.824;8.662;2023-03-12T00:24:05;5.65;;;1.50;;
24650;SDS011;12783;48.824;8.662;2023-03-12T00:26:33;3.97;;;1.42;;
24650;SDS011;12783;48.824;8.662;2023-03-12T00:29:00;5.15;;;1.45;;
24650;SDS011;12783;48.824;8.662;2023-03-12T00:31:28;5.93;;;1.58;;
24650;SDS011;12783;48.824;8.662;2023-03-12T00:33:57;3.10;;;1.38;;
24650;SDS011;12783;48.824;8.662;2023-03-12T00:36:25;2.70;;;1.73;;
24650;SDS011;12783;48.824;8.662;2023-03-12T00:38:54;4.35;;;1.63;;
24650;SDS011;12783;48.824;8.662;2023-03-12T00:41:22;5.47;;;1.40;;
24650;SDS011;12783;48.824;8.662;2023-03-12T00:43:50;4.53;;;1.40;;
24650;SDS011;12783;48.824;8.662;2023-03-12T00:46:17;4.75;;;1.70;;
24650;SDS011;12783;48.824;8.662;2023-03-12T00:48:45;5.15;;;1.65;;
24650;SDS011;12783;48.824;8.662;2023-03-12T00:51:11;6.97;;;1.60;;
24650;SDS011;12783;48.824;8.662;2023-03-12T00:53:39;8.18;;;1.60;;
24650;SDS011;12783;48.824;8.662;2023-03-12T00:56:05;4.53;;;1.38;;
24650;SDS011;12783;48.824;8.662;2023-03-12T00:58:33;3.78;;;1.50;;
24650;SDS011;12783;48.824;8.662;2023-03-12T01:00:59;4.10;;;1.50;;
24650;SDS011;12783;48.824;8.662;2023-03-12T01:03:26;3.35;;;1.65;;
24650;SDS011;12783;48.824;8.662;2023-03-12T01:05:53;5.95;;;1.50;;
24650;SDS011;12783;48.824;8.662;2023-03-12T01:08:20;4.13;;;1.45;;
24650;SDS011;12783;48.824;8.662;2023-03-12T01:10:47;5.40;;;1.42;;
24650;SDS011;12783;48.824;8.662;2023-03-12T01:13:14;7.63;;;1.35;;
24650;SDS011;12783;48.824;8.662;2023-03-12T01:15:41;5.88;;;1.67;;
24650;SDS011;12783;48.824;8.662;2023-03-12T01:18:07;4.75;;;1.75;;
24650;SDS011;12783;48.824;8.662;2023-03-12T01:20:34;3.78;;;1.40;;
24650;SDS011;12783;48.824;8.662;2023-03-12T01:23:01;6.10;;;1.73;;
24650;SDS011;12783;48.824;8.662;2023-03-12T01:25:28;6.18;;;1.88;;
24650;SDS011;12783;48.824;8.662;2023-03-12T01:27:54;3.55;;;1.52;;
24650;SDS011;12783;48.824;8.662;2023-03-12T01:30:21;6.25;;;1.50;;
24650;SDS011;12783;48.824;8.662;2023-03-12T01:32:49;3.90;;;1.38;;
24650;SDS011;12783;48.824;8.662;2023-03-12T01:35:17;7.88;;;2.13;;
24650;SDS011;12783;48.824;8.662;2023-03-12T01:37:44;5.90;;;1.73;;
24650;SDS011;12783;48.824;8.662;2023-03-12T01:40:15;6.70;;;1.60;;
24650;SDS011;12783;48.824;8.662;2023-03-12T01:42:42;4.30;;;1.60;;
24650;SDS011;12783;48.824;8.662;2023-03-12T01:48:16;11.70;;;1.73;;
24650;SDS011;12783;48.824;8.662;2023-03-12T01:50:43;5.07;;;1.70;;
24650;SDS011;12783;48.824;8.662;2023-03-12T01:53:10;5.47;;;1.80;;
24650;SDS011;12783;48.824;8.662;2023-03-12T01:55:37;4.70;;;1.90;;
24650;SDS011;12783;48.824;8.662;2023-03-12T01:58:04;5.78;;;1.80;;
24650;SDS011;12783;48.824;8.662;2023-03-12T02:00:32;3.03;;;1.40;;
24650;SDS011;12783;48.824;8.662;2023-03-12T02:02:59;2.85;;;1.38;;
24650;SDS011;12783;48.824;8.662;2023-03-12T02:08:19;4.40;;;1.50;;
24650;SDS011;12783;48.824;8.662;2023-03-12T02:10:49;5.47;;;1.90;;
24650;SDS011;12783;48.824;8.662;2023-03-12T02:13:15;5.82;;;1.60;;
24650;SDS011;12783;48.824;8.662;2023-03-12T02:15:42;6.38;;;1.75;;
24650;SDS011;12783;48.824;8.662;2023-03-12T02:18:10;3.53;;;1.40;;
24650;SDS011;12783;48.824;8.662;2023-03-12T02:23:45;2.53;;;1.38;;
24650;SDS011;12783;48.824;8.662;2023-03-12T02:26:24;6.43;;;1.65;;
24650;SDS011;12783;48.824;8.662;2023-03-12T02:28:51;5.88;;;1.60;;
24650;SDS011;12783;48.824;8.662;2023-03-12T02:31:20;4.00;;;1.63;;
24650;SDS011;12783;48.824;8.662;2023-03-12T02:33:49;5.05;;;1.95;;
24650;SDS011;12783;48.824;8.662;2023-03-12T02:36:18;3.90;;;1.65;;
24650;SDS011;12783;48.824;8.662;2023-03-12T02:38:49;6.10;;;1.60;;
24650;SDS011;12783;48.824;8.662;2023-03-12T02:44:03;4.50;;;1.70;;
24650;SDS011;12783;48.824;8.662;2023-03-12T02:46:45;4.63;;;1.80;;
24650;SDS011;12783;48.824;8.662;2023-03-12T02:49:14;6.13;;;1.70;;
24650;SDS011;12783;48.824;8.662;2023-03-12T02:51:42;4.75;;;1.90;;
24650;SDS011;12783;48.824;8.662;2023-03-12T02:54:10;5.30;;;1.70;;
24650;SDS011;12783;48.824;8.662;2023-03-12T02:56:37;9.35;;;1.80;;
24650;SDS011;12783;48.824;8.662;2023-03-12T02:59:05;7.90;;;1.40;;
24650;SDS011;12783;48.824;8.662;2023-03-12T03:01:32;4.03;;;1.65;;
24650;SDS011;12783;48.824;8.662;2023-03-12T03:03:59;4.10;;;1.45;;
24650;SDS011;12783;48.824;8.662;2023-03-12T03:06:27;5.70;;;1.88;;
24650;SDS011;12783;48.824;8.662;2023-03-12T03:08:54;4.93;;;1.77;;
24650;SDS011;12783;48.824;8.662;2023-03-12T03:11:21;7.20;;;2.00;;
24650;SDS011;12783;48.824;8.662;2023-03-12T03:13:50;5.30;;;1.77;;
24650;SDS011;12783;48.824;8.662;2023-03-12T03:16:17;7.72;;;2.53;;
24650;SDS011;12783;48.824;8.662;2023-03-12T03:18:44;3.20;;;1.80;;
24650;SDS011;12783;48.824;8.662;2023-03-12T03:21:12;6.30;;;2.22;;
24650;SDS011;12783;48.824;8.662;2023-03-12T03:23:42;11.82;;;2.60;;
24650;SDS011;12783;48.824;8.662;2023-03-12T03:26:10;7.88;;;2.97;;
24650;SDS011;12783;48.824;8.662;2023-03-12T03:28:37;4.38;;;2.78;;
24650;SDS011;12783;48.824;8.662;2023-03-12T03:31:04;8.18;;;3.28;;
24650;SDS011;12783;48.824;8.662;2023-03-12T03:33:32;6.90;;;3.35;;
24650;SDS011;12783;48.824;8.662;2023-03-12T03:36:00;5.80;;;3.35;;
24650;SDS011;12783;48.824;8.662;2023-03-12T03:38:28;10.32;;;3.15;;
24650;SDS011;12783;48.824;8.662;2023-03-12T03:40:55;5.97;;;3.20;;
24650;SDS011;12783;48.824;8.662;2023-03-12T03:43:23;9.18;;;3.30;;
24650;SDS011;12783;48.824;8.662;2023-03-12T03:45:56;8.30;;;3.20;;
24650;SDS011;12783;48.824;8.662;2023-03-12T03:48:24;7.00;;;3.22;;
24650;SDS011;12783;48.824;8.662;2023-03-12T03:50:50;7.00;;;3.10;;
24650;SDS011;12783;48.824;8.662;2023-03-12T03:53:18;6.80;;;3.10;;
24650;SDS011;12783;48.824;8.662;2023-03-12T03:55:45;8.38;;;3.10;;
24650;SDS011;12783;48.824;8.662;2023-03-12T03:58:12;6.90;;;2.92;;
24650;SDS011;12783;48.824;8.662;2023-03-12T04:00:39;6.95;;;3.30;;
24650;SDS011;12783;48.824;8.662;2023-03-12T04:03:05;4.82;;;3.15;;
24650;SDS011;12783;48.824;8.662;2023-03-12T04:05:32;9.35;;;2.95;;
24650;SDS011;12783;48.824;8.662;2023-03-12T04:07:59;6.25;;;3.00;;
24650;SDS011;12783;48.824;8.662;2023-03-12T04:10:28;4.72;;;2.75;;
24650;SDS011;12783;48.824;8.662;2023-03-12T04:12:55;8.57;;;3.00;;
24650;SDS011;12783;48.824;8.662;2023-03-12T04:15:22;6.68;;;3.03;;
24650;SDS011;12783;48.824;8.662;2023-03-12T04:17:49;7.45;;;2.85;;
24650;SDS011;12783;48.824;8.662;2023-03-12T04:20:16;6.60;;;3.15;;
24650;SDS011;12783;48.824;8.662;2023-03-12T04:22:42;8.32;;;3.00;;
24650;SDS011;12783;48.824;8.662;2023-03-12T04:25:09;6.85;;;2.78;;
24650;SDS011;12783;48.824;8.662;2023-03-12T04:27:36;6.47;;;3.35;;
24650;SDS011;12783;48.824;8.662;2023-03-12T04:30:03;7.45;;;3.50;;
24650;SDS011;12783;48.824;8.662;2023-03-12T04:32:30;7.40;;;3.20;;
24650;SDS011;12783;48.824;8.662;2023-03-12T04:34:57;10.32;;;3.97;;
24650;SDS011;12783;48.824;8.662;2023-03-12T04:37:24;8.45;;;3.90;;
24650;SDS011;12783;48.824;8.662;2023-03-12T04:39:51;9.18;;;3.63;;
24650;SDS011;12783;48.824;8.662;2023-03-12T04:42:17;7.75;;;3.50;;
24650;SDS011;12783;48.824;8.662;2023-03-12T04:44:44;4.70;;;2.85;;
24650;SDS011;12783;48.824;8.662;2023-03-12T04:47:11;9.07;;;3.45;;
24650;SDS011;12783;48.824;8.662;2023-03-12T04:49:38;4.63;;;3.40;;
24650;SDS011;12783;48.824;8.662;2023-03-12T04:52:05;5.70;;;3.50;;
24650;SDS011;12783;48.824;8.662;2023-03-12T04:54:32;7.30;;;3.90;;
24650;SDS011;12783;48.824;8.662;2023-03-12T04:56:59;5.43;;;3.20;;
24650;SDS011;12783;48.824;8.662;2023-03-12T04:59:25;8.65;;;3.90;;
24650;SDS011;12783;48.824;8.662;2023-03-12T05:01:52;6.28;;;3.53;;
24650;SDS011;12783;48.824;8.662;2023-03-12T05:04:19;5.85;;;3.45;;
24650;SDS011;12783;48.824;8.662;2023-03-12T05:06:46;8.95;;;3.72;;
24650;SDS011;12783;48.824;8.662;2023-03-12T05:09:12;7.88;;;3.25;;
24650;SDS011;12783;48.824;8.662;2023-03-12T05:11:39;7.03;;;3.70;;
24650;SDS011;12783;48.824;8.662;2023-03-12T05:14:06;11.43;;;3.85;;
24650;SDS011;12783;48.824;8.662;2023-03-12T05:16:32;8.98;;;3.50;;
24650;SDS011;12783;48.824;8.662;2023-03-12T05:18:59;5.85;;;3.50;;
24650;SDS011;12783;48.824;8.662;2023-03-12T05:21:27;8.73;;;3.92;;
24650;SDS011;12783;48.824;8.662;2023-03-12T05:23:54;9.98;;;4.30;;
24650;SDS011;12783;48.824;8.662;2023-03-12T05:26:25;5.97;;;3.75;;
24650;SDS011;12783;48.824;8.662;2023-03-12T05:28:59;7.00;;;3.80;;
24650;SDS011;12783;48.824;8.662;2023-03-12T05:31:27;6.65;;;3.67;;
24650;SDS011;12783;48.824;8.662;2023-03-12T05:33:58;6.43;;;3.90;;
24650;SDS011;12783;48.824;8.662;2023-03-12T05:36:25;10.18;;;3.80;;
24650;SDS011;12783;48.824;8.662;2023-03-12T05:38:51;7.82;;;3.90;;
24650;SDS011;12783;48.824;8.662;2023-03-12T05:41:20;9.07;;;4.18;;
24650;SDS011;12783;48.824;8.662;2023-03-12T05:43:54;8.70;;;3.83;;
24650;SDS011;12783;48.824;8.662;2023-03-12T05:46:22;7.70;;;4.05;;
24650;SDS011;12783;48.824;8.662;2023-03-12T05:48:50;7.75;;;4.35;;
24650;SDS011;12783;48.824;8.662;2023-03-12T05:51:17;11.82;;;4.72;;
24650;SDS011;12783;48.824;8.662;2023-03-12T05:53:44;10.95;;;3.90;;
24650;SDS011;12783;48.824;8.662;2023-03-12T05:56:12;7.53;;;4.05;;
24650;SDS011;12783;48.824;8.662;2023-03-12T05:58:40;14.05;;;4.32;;
24650;SDS011;12783;48.824;8.662;2023-03-12T06:01:11;9.73;;;4.25;;
24650;SDS011;12783;48.824;8.662;2023-03-12T06:03:40;9.43;;;3.88;;
24650;SDS011;12783;48.824;8.662;2023-03-12T06:06:08;9.57;;;3.90;;
24650;SDS011;12783;48.824;8.662;2023-03-12T06:08:35;6.43;;;3.80;;
24650;SDS011;12783;48.824;8.662;2023-03-12T06:11:02;7.72;;;4.03;;
24650;SDS011;12783;48.824;8.662;2023-03-12T06:13:29;9.20;;;4.63;;
24650;SDS011;12783;48.824;8.662;2023-03-12T06:16:00;8.55;;;3.85;;
24650;SDS011;12783;48.824;8.662;2023-03-12T06:18:30;10.68;;;4.10;;
24650;SDS011;12783;48.824;8.662;2023-03-12T06:21:11;9.27;;;3.83;;
24650;SDS011;12783;48.824;8.662;2023-03-12T06:23:43;11.50;;;4.70;;
24650;SDS011;12783;48.824;8.662;2023-03-12T06:26:11;10.07;;;4.63;;
24650;SDS011;12783;48.824;8.662;2023-03-12T06:28:38;6.50;;;4.20;;
24650;SDS011;12783;48.824;8.662;2023-03-12T06:31:05;6.05;;;4.10;;
24650;SDS011;12783;48.824;8.662;2023-03-12T06:33:32;8.82;;;4.28;;
24650;SDS011;12783;48.824;8.662;2023-03-12T06:36:00;8.70;;;4.30;;
24650;SDS011;12783;48.824;8.662;2023-03-12T06:38:28;6.97;;;4.38;;
24650;SDS011;12783;48.824;8.662;2023-03-12T06:40:59;6.63;;;4.35;;
24650;SDS011;12783;48.824;8.662;2023-03-12T06:43:28;7.80;;;3.78;;
24650;SDS011;12783;48.824;8.662;2023-03-12T06:45:56;10.15;;;4.63;;
24650;SDS011;12783;48.824;8.662;2023-03-12T06:48:24;10.30;;;4.50;;
24650;SDS011;12783;48.824;8.662;2023-03-12T06:50:52;6.55;;;3.50;;
24650;SDS011;12783;48.824;8.662;2023-03-12T06:53:19;6.95;;;3.35;;
24650;SDS011;12783;48.824;8.662;2023-03-12T06:55:48;7.97;;;3.72;;
24650;SDS011;12783;48.824;8.662;2023-03-12T06:58:16;5.07;;;2.80;;
24650;SDS011;12783;48.824;8.662;2023-03-12T07:00:43;5.32;;;2.70;;
24650;SDS011;12783;48.824;8.662;2023-03-12T07:03:10;5.65;;;3.00;;
24650;SDS011;12783;48.824;8.662;2023-03-12T07:05:36;9.38;;;2.90;;
24650;SDS011;12783;48.824;8.662;2023-03-12T07:08:03;3.85;;;2.53;;
24650;SDS011;12783;48.824;8.662;2023-03-12T07:10:30;5.85;;;2.67;;
24650;SDS011;12783;48.824;8.662;2023-03-12T07:12:57;5.32;;;2.58;;
24650;SDS011;12783;48.824;8.662;2023-03-12T07:15:24;4.47;;;2.30;;
24650;SDS011;12783;48.824;8.662;2023-03-12T07:17:50;3.53;;;2.40;;
24650;SDS011;12783;48.824;8.662;2023-03-12T07:20:17;4.43;;;2.28;;
24650;SDS011;12783;48.824;8.662;2023-03-12T07:22:44;4.45;;;2.17;;
24650;SDS011;12783;48.824;8.662;2023-03-12T07:25:11;5.20;;;2.60;;
24650;SDS011;12783;48.824;8.662;2023-03-12T07:27:38;2.85;;;2.13;;
24650;SDS011;12783;48.824;8.662;2023-03-12T07:30:05;4.60;;;1.75;;
24650;SDS011;12783;48.824;8.662;2023-03-12T07:32:32;2.60;;;1.60;;
24650;SDS011;12783;48.824;8.662;2023-03-12T07:35:00;2.63;;;1.63;;
24650;SDS011;12783;48.824;8.662;2023-03-12T07:37:27;2.55;;;1.52;;
24650;SDS011;12783;48.824;8.662;2023-03-12T07:39:54;2.58;;;1.60;;
24650;SDS011;12783;48.824;8.662;2023-03-12T07:42:21;2.35;;;1.65;;
24650;SDS011;12783;48.824;8.662;2023-03-12T07:44:48;2.35;;;1.50;;
24650;SDS011;12783;48.824;8.662;2023-03-12T07:47:15;3.28;;;1.70;;
24650;SDS011;12783;48.824;8.662;2023-03-12T07:49:49;3.60;;;1.90;;
24650;SDS011;12783;48.824;8.662;2023-03-12T07:52:16;2.25;;;1.70;;
24650;SDS011;12783;48.824;8.662;2023-03-12T07:54:45;3.17;;;2.00;;
24650;SDS011;12783;48.824;8.662;2023-03-12T07:57:12;3.92;;;1.77;;
24650;SDS011;12783;48.824;8.662;2023-03-12T07:59:39;3.70;;;2.03;;
24650;SDS011;12783;48.824;8.662;2023-03-12T08:02:05;7.80;;;3.30;;
24650;SDS011;12783;48.824;8.662;2023-03-12T08:04:34;4.70;;;2.65;;
24650;SDS011;12783;48.824;8.662;2023-03-12T08:07:01;6.22;;;3.40;;
24650;SDS011;12783;48.824;8.662;2023-03-12T08:09:28;3.97;;;2.63;;
24650;SDS011;12783;48.824;8.662;2023-03-12T08:11:54;4.88;;;2.25;;
24650;SDS011;12783;48.824;8.662;2023-03-12T08:14:21;5.78;;;2.40;;
24650;SDS011;12783;48.824;8.662;2023-03-12T08:16:48;2.05;;;1.63;;
24650;SDS011;12783;48.824;8.662;2023-03-12T08:19:15;2.70;;;1.50;;
24650;SDS011;12783;48.824;8.662;2023-03-12T08:21:42;2.00;;;1.10;;
24650;SDS011;12783;48.824;8.662;2023-03-12T08:24:09;3.17;;;2.00;;
24650;SDS011;12783;48.824;8.662;2023-03-12T08:26:35;4.53;;;2.33;;
24650;SDS011;12783;48.824;8.662;2023-03-12T08:29:02;5.90;;;2.70;;
24650;SDS011;12783;48.824;8.662;2023-03-12T08:31:29;8.63;;;2.40;;
24650;SDS011;12783;48.824;8.662;2023-03-12T08:33:56;4.50;;;2.10;;
24650;SDS011;12783;48.824;8.662;2023-03-12T08:36:22;3.75;;;1.90;;
24650;SDS011;12783;48.824;8.662;2023-03-12T08:38:49;2.30;;;1.40;;
24650;SDS011;12783;48.824;8.662;2023-03-12T08:41:16;2.78;;;0.90;;
24650;SDS011;12783;48.824;8.662;2023-03-12T08:43:43;1.85;;;1.20;;
24650;SDS011;12783;48.824;8.662;2023-03-12T08:46:09;3.42;;;0.88;;
24650;SDS011;12783;48.824;8.662;2023-03-12T08:48:37;1.00;;;0.90;;
24650;SDS011;12783;48.824;8.662;2023-03-12T08:51:04;0.50;;;0.50;;
24650;SDS011;12783;48.824;8.662;2023-03-12T08:53:33;2.70;;;0.57;;
24650;SDS011;12783;48.824;8.662;2023-03-12T08:56:01;0.52;;;0.52;;
24650;SDS011;12783;48.824;8.662;2023-03-12T08:58:29;1.35;;;0.70;;
24650;SDS011;12783;48.824;8.662;2023-03-12T09:00:56;0.88;;;0.60;;
24650;SDS011;12783;48.824;8.662;2023-03-12T09:03:23;0.50;;;0.50;;
24650;SDS011;12783;48.824;8.662;2023-03-12T09:06:01;2.05;;;0.60;;
24650;SDS011;12783;48.824;8.662;2023-03-12T09:08:32;1.83;;;0.70;;
24650;SDS011;12783;48.824;8.662;2023-03-12T09:10:59;0.50;;;0.50;;
24650;SDS011;12783;48.824;8.662;2023-03-12T09:13:27;0.50;;;0.50;;
24650;SDS011;12783;48.824;8.662;2023-03-12T09:16:14;0.70;;;0.60;;
24650;SDS011;12783;48.824;8.662;2023-03-12T09:18:41;0.40;;;0.40;;
24650;SDS011;12783;48.824;8.662;2023-03-12T09:21:07;1.00;;;0.63;;
24650;SDS011;12783;48.824;8.662;2023-03-12T09:23:34;2.53;;;0.57;;
24650;SDS011;12783;48.824;8.662;2023-03-12T09:26:01;0.40;;;0.40;;
24650;SDS011;12783;48.824;8.662;2023-03-12T09:28:28;3.35;;;0.68;;
24650;SDS011;12783;48.824;8.662;2023-03-12T09:30:55;1.48;;;0.50;;
24650;SDS011;12783;48.824;8.662;2023-03-12T09:33:22;0.40;;;0.40;;
24650;SDS011;12783;48.824;8.662;2023-03-12T09:35:54;0.57;;;0.40;;
24650;SDS011;12783;48.824;8.662;2023-03-12T09:38:22;1.17;;;0.87;;
24650;SDS011;12783;48.824;8.662;2023-03-12T09:40:49;2.28;;;1.00;;
24650;SDS011;12783;48.824;8.662;2023-03-12T09:43:21;1.05;;;0.80;;
24650;SDS011;12783;48.824;8.662;2023-03-12T09:45:57;2.90;;;0.88;;
24650;SDS011;12783;48.824;8.662;2023-03-12T09:48:31;1.00;;;0.52;;
24650;SDS011;12783;48.824;8.662;2023-03-12T09:51:03;1.75;;;0.60;;
24650;SDS011;12783;48.824;8.662;2023-03-12T09:56:01;1.35;;;1.15;;
24650;SDS011;12783;48.824;8.662;2023-03-12T09:58:35;2.92;;;1.20;;
24650;SDS011;12783;48.824;8.662;2023-03-12T10:06:59;3.72;;;2.00;;
24650;SDS011;12783;48.824;8.662;2023-03-12T10:09:38;6.25;;;2.35;;
24650;SDS011;12783;48.824;8.662;2023-03-12T10:12:44;5.53;;;2.50;;
24650;SDS011;12783;48.824;8.662;2023-03-12T10:18:19;6.55;;;3.00;;
24650;SDS011;12783;48.824;8.662;2023-03-12T10:20:50;5.85;;;2.72;;
24650;SDS011;12783;48.824;8.662;2023-03-12T10:23:24;8.38;;;2.90;;
24650;SDS011;12783;48.824;8.662;2023-03-12T10:26:06;10.98;;;3.40;;
24650;SDS011;12783;48.824;8.662;2023-03-12T10:28:40;11.93;;;3.35;;
24650;SDS011;12783;48.824;8.662;2023-03-12T10:31:13;17.60;;;3.55;;
24650;SDS011;12783;48.824;8.662;2023-03-12T10:33:52;12.65;;;3.65;;
24650;SDS011;12783;48.824;8.662;2023-03-12T10:36:23;9.35;;;3.88;;
24650;SDS011;12783;48.824;8.662;2023-03-12T10:39:02;10.32;;;3.38;;
24650;SDS011;12783;48.824;8.662;2023-03-12T10:41:31;16.88;;;4.10;;
24650;SDS011;12783;48.824;8.662;2023-03-12T10:44:01;9.75;;;3.00;;
24650;SDS011;12783;48.824;8.662;2023-03-12T10:46:41;8.80;;;2.78;;
24650;SDS011;12783;48.824;8.662;2023-03-12T10:54:34;9.38;;;2.88;;
24650;SDS011;12783;48.824;8.662;2023-03-12T10:57:06;10.38;;;3.42;;
24650;SDS011;12783;48.824;8.662;2023-03-12T10:59:34;15.52;;;3.60;;
24650;SDS011;12783;48.824;8.662;2023-03-12T11:04:50;10.13;;;3.30;;
24650;SDS011;12783;48.824;8.662;2023-03-12T11:07:18;10.18;;;3.50;;
24650;SDS011;12783;48.824;8.662;2023-03-12T11:12:33;9.57;;;3.33;;
24650;SDS011;12783;48.824;8.662;2023-03-12T11:15:20;16.23;;;3.47;;
24650;SDS011;12783;48.824;8.662;2023-03-12T11:17:50;14.07;;;3.25;;
24650;SDS011;12783;48.824;8.662;2023-03-12T11:20:27;13.10;;;2.67;;
24650;SDS011;12783;48.824;8.662;2023-03-12T11:22:55;9.10;;;2.80;;
24650;SDS011;12783;48.824;8.662;2023-03-12T11:25:26;16.08;;;3.80;;
24650;SDS011;12783;48.824;8.662;2023-03-12T11:27:54;15.65;;;4.28;;
24650;SDS011;12783;48.824;8.662;2023-03-12T11:30:25;13.10;;;4.40;;
24650;SDS011;12783;48.824;8.662;2023-03-12T11:32:57;19.30;;;4.82;;
24650;SDS011;12783;48.824;8.662;2023-03-12T11:38:16;20.58;;;4.95;;
24650;SDS011;12783;48.824;8.662;2023-03-12T11:46:18;11.55;;;4.35;;
24650;SDS011;12783;48.824;8.662;2023-03-12T11:49:05;13.68;;;3.88;;
24650;SDS011;12783;48.824;8.662;2023-03-12T11:51:52;12.38;;;3.55;;
24650;SDS011;12783;48.824;8.662;2023-03-12T12:02:27;12.32;;;2.53;;
24650;SDS011;12783;48.824;8.662;2023-03-12T12:08:24;12.32;;;2.95;;
24650;SDS011;12783;48.824;8.662;2023-03-12T12:10:58;10.57;;;2.45;;
24650;SDS011;12783;48.824;8.662;2023-03-12T12:13:36;11.48;;;2.55;;
24650;SDS011;12783;48.824;8.662;2023-03-12T12:16:40;7.93;;;2.22;;
24650;SDS011;12783;48.824;8.662;2023-03-12T12:27:22;9.05;;;2.80;;
24650;SDS011;12783;48.824;8.662;2023-03-12T12:29:55;10.48;;;2.90;;
24650;SDS011;12783;48.824;8.662;2023-03-12T12:35:24;9.85;;;2.38;;
24650;SDS011;12783;48.824;8.662;2023-03-12T12:38:00;7.55;;;2.10;;
24650;SDS011;12783;48.824;8.662;2023-03-12T12:40:34;8.52;;;2.15;;
24650;SDS011;12783;48.824;8.662;2023-03-12T12:43:24;8.13;;;1.83;;
24650;SDS011;12783;48.824;8.662;2023-03-12T12:45:54;9.15;;;2.38;;
24650;SDS011;12783;48.824;8.662;2023-03-12T12:48:34;7.75;;;2.17;;
24650;SDS011;12783;48.824;8.662;2023-03-12T12:51:06;14.70;;;2.40;;
24650;SDS011;12783;48.824;8.662;2023-03-12T12:53:55;12.18;;;2.50;;
24650;SDS011;12783;48.824;8.662;2023-03-12T12:56:51;13.85;;;2.78;;
24650;SDS011;12783;48.824;8.662;2023-03-12T12:59:44;9.38;;;2.72;;
24650;SDS011;12783;48.824;8.662;2023-03-12T13:02:31;16.80;;;2.80;;
24650;SDS011;12783;48.824;8.662;2023-03-12T13:04:59;11.95;;;2.40;;
24650;SDS011;12783;48.824;8.662;2023-03-12T13:09:57;15.18;;;2.53;;
24650;SDS011;12783;48.824;8.662;2023-03-12T13:12:32;16.55;;;2.53;;
24650;SDS011;12783;48.824;8.662;2023-03-12T13:15:31;13.43;;;2.83;;
24650;SDS011;12783;48.824;8.662;2023-03-12T13:20:20;14.65;;;3.10;;
24650;SDS011;12783;48.824;8.662;2023-03-12T13:25:49;17.63;;;3.08;;
24650;SDS011;12783;48.824;8.662;2023-03-12T13:30:56;10.18;;;2.88;;
24650;SDS011;12783;48.824;8.662;2023-03-12T13:33:40;14.57;;;3.05;;
24650;SDS011;12783;48.824;8.662;2023-03-12T13:41:36;10.38;;;2.83;;
24650;SDS011;12783;48.824;8.662;2023-03-12T13:46:53;9.30;;;2.00;;
24650;SDS011;12783;48.824;8.662;2023-03-12T13:49:32;13.77;;;2.28;;
24650;SDS011;12783;48.824;8.662;2023-03-12T13:52:07;10.82;;;2.83;;
24650;SDS011;12783;48.824;8.662;2023-03-12T13:55:00;13.00;;;2.45;;
24650;SDS011;12783;48.824;8.662;2023-03-12T13:57:54;13.77;;;2.72;;
24650;SDS011;12783;48.824;8.662;2023-03-12T14:03:03;16.88;;;4.85;;
24650;SDS011;12783;48.824;8.662;2023-03-12T14:05:43;11.63;;;3.33;;
24650;SDS011;12783;48.824;8.662;2023-03-12T14:08:20;13.77;;;3.58;;
24650;SDS011;12783;48.824;8.662;2023-03-12T14:11:02;15.38;;;2.95;;
24650;SDS011;12783;48.824;8.662;2023-03-12T14:16:53;12.07;;;2.35;;
24650;SDS011;12783;48.824;8.662;2023-03-12T14:19:22;10.35;;;2.58;;
24650;SDS011;12783;48.824;8.662;2023-03-12T14:21:50;13.52;;;3.20;;
24650;SDS011;12783;48.824;8.662;2023-03-12T14:24:26;11.70;;;2.72;;
24650;SDS011;12783;48.824;8.662;2023-03-12T14:27:01;10.27;;;2.63;;
24650;SDS011;12783;48.824;8.662;2023-03-12T14:29:42;10.35;;;2.40;;
24650;SDS011;12783;48.824;8.662;2023-03-12T14:32:12;13.30;;;3.08;;
24650;SDS011;12783;48.824;8.662;2023-03-12T14:34:48;8.02;;;1.77;;
24650;SDS011;12783;48.824;8.662;2023-03-12T14:37:19;7.47;;;2.20;;
24650;SDS011;12783;48.824;8.662;2023-03-12T14:39:53;8.43;;;2.00;;
24650;SDS011;12783;48.824;8.662;2023-03-12T14:42:27;8.80;;;1.80;;
24650;SDS011;12783;48.824;8.662;2023-03-12T14:47:42;12.48;;;2.10;;
24650;SDS011;12783;48.824;8.662;2023-03-12T14:50:17;10.70;;;2.08;;
24650;SDS011;12783;48.824;8.662;2023-03-12T14:52:45;10.00;;;2.20;;
24650;SDS011;12783;48.824;8.662;2023-03-12T14:55:18;13.27;;;2.28;;
24650;SDS011;12783;48.824;8.662;2023-03-12T14:57:47;11.98;;;2.00;;
24650;SDS011;12783;48.824;8.662;2023-03-12T15:02:50;16.88;;;2.55;;
24650;SDS011;12783;48.824;8.662;2023-03-12T15:05:18;7.38;;;2.10;;
24650;SDS011;12783;48.824;8.662;2023-03-12T15:07:45;8.88;;;1.92;;
24650;SDS011;12783;48.824;8.662;2023-03-12T15:12:51;11.43;;;2.08;;
24650;SDS011;12783;48.824;8.662;2023-03-12T15:15:33;7.32;;;2.05;;
24650;SDS011;12783;48.824;8.662;2023-03-12T15:18:05;10.25;;;1.67;;
24650;SDS011;12783;48.824;8.662;2023-03-12T15:20:34;10.32;;;2.08;;
24650;SDS011;12783;48.824;8.662;2023-03-12T15:23:01;10.90;;;2.08;;
24650;SDS011;12783;48.824;8.662;2023-03-12T15:25:30;10.82;;;2.35;;
24650;SDS011;12783;48.824;8.662;2023-03-12T15:28:07;9.48;;;1.90;;
24650;SDS011;12783;48.824;8.662;2023-03-12T15:30:37;10.68;;;2.10;;
24650;SDS011;12783;48.824;8.662;2023-03-12T15:33:09;13.00;;;2.58;;
24650;SDS011;12783;48.824;8.662;2023-03-12T15:35:38;8.15;;;2.05;;
24650;SDS011;12783;48.824;8.662;2023-03-12T15:38:22;10.30;;;2.17;;
24650;SDS011;12783;48.824;8.662;2023-03-12T15:40:49;6.95;;;1.92;;
24650;SDS011;12783;48.824;8.662;2023-03-12T15:43:19;15.23;;;3.03;;
24650;SDS011;12783;48.824;8.662;2023-03-12T15:45:46;10.73;;;2.58;;
24650;SDS011;12783;48.824;8.662;2023-03-12T15:48:35;13.70;;;2.53;;
24650;SDS011;12783;48.824;8.662;2023-03-12T15:51:01;10.30;;;2.10;;
24650;SDS011;12783;48.824;8.662;2023-03-12T15:53:32;9.35;;;2.10;;
24650;SDS011;12783;48.824;8.662;2023-03-12T15:56:01;10.15;;;1.88;;
24650;SDS011;12783;48.824;8.662;2023-03-12T15:58:38;16.13;;;2.85;;
24650;SDS011;12783;48.824;8.662;2023-03-12T16:01:13;14.48;;;2.10;;
24650;SDS011;12783;48.824;8.662;2023-03-12T16:03:46;12.95;;;2.63;;
24650;SDS011;12783;48.824;8.662;2023-03-12T16:06:14;17.52;;;2.80;;
24650;SDS011;12783;48.824;8.662;2023-03-12T16:08:49;10.15;;;2.00;;
24650;SDS011;12783;48.824;8.662;2023-03-12T16:11:27;17.02;;;2.42;;
24650;SDS011;12783;48.824;8.662;2023-03-12T16:13:58;10.70;;;2.80;;
24650;SDS011;12783;48.824;8.662;2023-03-12T16:16:29;10.80;;;2.40;;
24650;SDS011;12783;48.824;8.662;2023-03-12T16:18:55;14.10;;;3.00;;
24650;SDS011;12783;48.824;8.662;2023-03-12T16:21:22;12.82;;;2.55;;
24650;SDS011;12783;48.824;8.662;2023-03-12T16:23:49;15.02;;;2.90;;
24650;SDS011;12783;48.824;8.662;2023-03-12T16:26:16;12.98;;;3.13;;
24650;SDS011;12783;48.824;8.662;2023-03-12T16:28:43;13.43;;;2.90;;
24650;SDS011;12783;48.824;8.662;2023-03-12T16:31:12;8.48;;;2.03;;
24650;SDS011;12783;48.824;8.662;2023-03-12T16:33:39;12.05;;;2.70;;
24650;SDS011;12783;48.824;8.662;2023-03-12T16:36:13;10.32;;;2.42;;
24650;SDS011;12783;48.824;8.662;2023-03-12T16:38:42;10.48;;;2.05;;